Time;durP1;ratioP1;P1;durP2;ratioP2;P2;SDS_P1;SDS_P2;PMS_P1;PMS_P2;Temp;Humidity;BMP_temperature;BMP_pressure;BME280_temperature;BME280_humidity;BME280_pressure;Samples;Min_cycle;Max_cycle;Signal;HPM_P1;HPM_P2
2021/11/16 00:00:07;;;;;;;49.70;24.27;;;5.70;99.90;;;;;;5092185;28;20078;-72
2021/11/16 00:02:34;;;;;;;53.30;25.17;;;5.70;99.90;;;;;;5092189;28;20051;-72
2021/11/16 00:05:01;;;;;;;52.63;24.37;;;5.70;99.90;;;;;;5091649;28;20325;-73
2021/11/16 00:07:28;;;;;;;43.83;21.30;;;5.80;99.90;;;;;;5092148;28;20078;-74
2021/11/16 00:09:55;;;;;;;44.13;22.57;;;5.70;99.90;;;;;;5091989;28;20051;-74
2021/11/16 00:12:23;;;;;;;47.33;21.90;;;5.80;99.90;;;;;;5092621;28;20089;-73
2021/11/16 00:14:50;;;;;;;47.47;22.97;;;5.80;99.90;;;;;;5091477;28;20060;-72
2021/11/16 00:17:17;;;;;;;49.10;24.03;;;5.80;99.90;;;;;;5092082;28;20044;-72
2021/11/16 00:19:47;;;;;;;41.13;20.57;;;5.80;99.90;;;;;;5091983;28;20173;-72
2021/11/16 00:22:17;;;;;;;47.60;22.83;;;5.80;99.90;;;;;;5091892;28;20153;-72
2021/11/16 00:24:56;;;;;;;46.43;23.07;;;5.80;99.90;;;;;;5091957;28;20080;-74
2021/11/16 00:27:24;;;;;;;42.77;24.43;;;5.80;99.90;;;;;;5092079;28;20047;-75
2021/11/16 00:29:51;;;;;;;46.30;23.23;;;5.80;99.90;;;;;;5091522;28;20454;-74
2021/11/16 00:32:18;;;;;;;53.63;24.70;;;5.70;99.90;;;;;;5091820;28;20122;-73
2021/11/16 00:34:45;;;;;;;44.50;23.67;;;5.70;99.90;;;;;;5091126;28;20577;-74
2021/11/16 00:37:12;;;;;;;52.10;25.80;;;5.70;99.90;;;;;;5091535;28;20044;-73
2021/11/16 00:39:39;;;;;;;48.00;23.73;;;5.70;99.90;;;;;;5091481;28;20048;-73
2021/11/16 00:42:06;;;;;;;54.10;24.37;;;5.70;99.90;;;;;;5091718;28;20071;-73
2021/11/16 00:44:35;;;;;;;42.37;22.47;;;5.80;99.90;;;;;;5091002;28;20056;-73
2021/11/16 00:47:02;;;;;;;43.23;23.23;;;5.70;99.90;;;;;;5091398;28;20506;-74
2021/11/16 00:49:29;;;;;;;50.87;25.40;;;5.80;99.90;;;;;;5091377;28;20075;-73
2021/11/16 00:51:55;;;;;;;54.37;23.90;;;5.80;99.90;;;;;;5091386;28;20055;-74
2021/11/16 00:54:23;;;;;;;44.70;22.90;;;5.80;99.90;;;;;;5090854;28;20090;-74
2021/11/16 00:56:49;;;;;;;47.27;24.10;;;5.80;99.90;;;;;;5091551;28;20044;-74
2021/11/16 00:59:16;;;;;;;43.70;22.27;;;5.80;99.90;;;;;;5091344;28;20474;-74
2021/11/16 01:01:46;;;;;;;47.40;24.13;;;5.80;99.90;;;;;;5091338;28;20122;-74
2021/11/16 01:04:15;;;;;;;49.43;24.30;;;5.80;99.90;;;;;;5090664;28;20048;-74
2021/11/16 01:06:42;;;;;;;51.27;23.47;;;5.80;99.90;;;;;;5091176;28;20168;-73
2021/11/16 01:09:09;;;;;;;47.17;24.87;;;5.70;99.90;;;;;;5091473;28;20071;-73
2021/11/16 01:11:35;;;;;;;44.73;23.60;;;5.70;99.90;;;;;;5091267;28;20051;-73
2021/11/16 01:14:03;;;;;;;53.77;25.50;;;5.70;99.90;;;;;;5090654;28;20628;-75
2021/11/16 01:16:30;;;;;;;49.27;23.97;;;5.70;99.90;;;;;;5091108;28;20135;-73
2021/11/16 01:18:59;;;;;;;46.43;23.33;;;5.70;99.90;;;;;;5091071;28;20473;-73
2021/11/16 01:21:25;;;;;;;47.50;22.97;;;5.60;99.90;;;;;;5090893;28;20624;-71
2021/11/16 01:23:53;;;;;;;48.03;23.77;;;5.70;99.90;;;;;;5090704;28;20139;-72
2021/11/16 01:26:19;;;;;;;51.07;23.90;;;5.70;99.90;;;;;;5092158;28;20469;-73
2021/11/16 01:28:46;;;;;;;43.50;23.67;;;5.70;99.90;;;;;;5095163;28;20091;-74
2021/11/16 01:31:15;;;;;;;44.87;21.30;;;5.70;99.90;;;;;;5095217;28;20134;-72
2021/11/16 01:33:43;;;;;;;50.87;23.67;;;5.70;99.90;;;;;;5094594;28;20044;-72
2021/11/16 01:36:13;;;;;;;44.60;23.80;;;5.60;99.90;;;;;;5095093;28;20048;-71
2021/11/16 01:38:41;;;;;;;41.97;22.20;;;5.60;99.90;;;;;;5095146;28;20071;-72
2021/11/16 01:41:08;;;;;;;47.43;24.33;;;5.60;99.90;;;;;;5095003;28;20044;-73
2021/11/16 01:43:36;;;;;;;58.07;26.17;;;5.50;99.90;;;;;;5094284;28;20067;-73
2021/11/16 01:46:08;;;;;;;40.00;21.77;;;5.60;99.90;;;;;;5094921;28;20097;-72
2021/11/16 01:48:35;;;;;;;;;;;5.60;99.90;;;;;;5095191;28;20106;-72
2021/11/16 01:51:02;;;;;;;40.40;22.57;;;5.70;99.90;;;;;;5094840;28;19943;-73
2021/11/16 01:53:31;;;;;;;43.30;21.80;;;5.60;99.90;;;;;;5094269;28;20534;-73
2021/11/16 01:55:58;;;;;;;45.27;20.60;;;5.60;99.90;;;;;;5094851;28;20079;-73
2021/11/16 01:58:25;;;;;;;46.23;20.70;;;5.60;99.90;;;;;;5094733;28;20063;-73
2021/11/16 02:00:53;;;;;;;44.27;22.87;;;5.50;99.90;;;;;;5094612;28;20105;-73
2021/11/16 02:03:21;;;;;;;43.30;22.13;;;5.50;99.90;;;;;;5094127;28;20052;-73
2021/11/16 02:05:50;;;;;;;44.23;20.23;;;5.50;99.90;;;;;;5094908;28;20437;-74
2021/11/16 02:08:18;;;;;;;45.47;24.40;;;5.50;99.90;;;;;;5094991;28;20044;-73
2021/11/16 02:10:48;;;;;;;48.70;23.37;;;5.50;99.90;;;;;;5094631;28;20135;-74
2021/11/16 02:13:17;;;;;;;43.20;20.13;;;5.50;99.90;;;;;;5092882;28;20071;-74
2021/11/16 02:15:44;;;;;;;45.00;21.37;;;5.50;99.90;;;;;;5094909;28;20087;-74
2021/11/16 02:18:13;;;;;;;44.67;19.80;;;5.50;99.90;;;;;;5094812;28;20131;-73
2021/11/16 02:20:43;;;;;;;42.03;20.77;;;5.40;99.90;;;;;;5094649;28;20048;-74
2021/11/16 02:23:11;;;;;;;48.17;22.03;;;5.40;99.90;;;;;;5094057;28;20078;-74
2021/11/16 02:25:39;;;;;;;45.07;22.40;;;5.40;99.90;;;;;;5094708;28;20317;-74
2021/11/16 02:28:07;;;;;;;42.67;21.10;;;5.50;99.90;;;;;;5094494;28;20052;-74
2021/11/16 02:30:34;;;;;;;45.10;22.03;;;5.50;99.90;;;;;;5094390;28;20546;-74
2021/11/16 02:33:02;;;;;;;49.03;22.57;;;5.50;99.90;;;;;;5094354;28;20047;-73
2021/11/16 02:35:29;;;;;;;46.73;21.90;;;5.50;99.90;;;;;;5093841;28;20079;-74
2021/11/16 02:37:58;;;;;;;41.40;21.90;;;5.50;99.90;;;;;;5094155;28;20073;-74
2021/11/16 02:40:27;;;;;;;40.37;19.93;;;5.50;99.90;;;;;;5094157;28;20044;-74
2021/11/16 02:42:54;;;;;;;48.77;22.60;;;5.60;99.90;;;;;;5094295;28;20403;-74
2021/11/16 02:45:22;;;;;;;44.60;21.83;;;5.50;99.90;;;;;;5093904;28;20048;-74
2021/11/16 02:47:50;;;;;;;43.70;20.47;;;5.50;99.90;;;;;;5094210;28;20048;-73
2021/11/16 02:50:18;;;;;;;47.87;22.60;;;5.50;99.90;;;;;;5093993;28;20109;-72
2021/11/16 02:52:45;;;;;;;49.37;22.67;;;5.40;99.90;;;;;;5093908;28;20076;-72
2021/11/16 02:55:14;;;;;;;49.60;23.23;;;5.40;99.90;;;;;;5093638;28;20075;-71
2021/11/16 02:57:41;;;;;;;48.73;22.63;;;5.40;99.90;;;;;;5093874;28;20075;-72
2021/11/16 03:00:11;;;;;;;46.97;22.23;;;5.40;99.90;;;;;;5093761;28;20040;-72
2021/11/16 03:02:41;;;;;;;51.77;22.97;;;5.50;99.90;;;;;;5094071;28;20040;-72
2021/11/16 03:05:09;;;;;;;43.60;19.30;;;5.40;99.90;;;;;;5093147;28;20082;-72
2021/11/16 03:07:39;;;;;;;48.37;21.47;;;5.50;99.90;;;;;;5093473;28;20105;-72
2021/11/16 03:10:08;;;;;;;42.50;22.23;;;5.50;99.90;;;;;;5093521;28;20551;-72
2021/11/16 03:12:36;;;;;;;40.30;20.27;;;5.50;99.90;;;;;;5093872;28;20130;-71
2021/11/16 03:15:05;;;;;;;44.53;21.40;;;5.50;99.90;;;;;;5093158;28;20071;-73
2021/11/16 03:17:32;;;;;;;44.73;21.67;;;5.40;99.90;;;;;;5093589;28;20044;-72
2021/11/16 03:19:59;;;;;;;48.27;24.13;;;5.40;99.90;;;;;;5093388;28;20693;-72
2021/11/16 03:22:31;;;;;;;43.37;21.13;;;5.40;99.90;;;;;;5093600;28;20126;-71
2021/11/16 03:25:00;;;;;;;44.83;20.87;;;5.40;99.90;;;;;;5093144;28;20139;-73
2021/11/16 03:27:31;;;;;;;51.33;22.07;;;5.40;99.90;;;;;;5093500;28;20044;-73
2021/11/16 03:30:00;;;;;;;50.37;22.30;;;5.40;99.90;;;;;;5093293;28;20052;-72
2021/11/16 03:32:31;;;;;;;47.77;22.90;;;5.40;99.90;;;;;;5093086;28;20308;-73
2021/11/16 03:34:59;;;;;;;44.38;22.48;;;5.30;99.90;;;;;;5092575;28;20493;-73
2021/11/16 03:37:33;;;;;;;53.03;24.60;;;5.40;99.90;;;;;;5093075;28;20596;-72
2021/11/16 03:40:02;;;;;;;40.73;20.20;;;5.30;99.90;;;;;;5092780;28;20519;-74
2021/11/16 03:42:29;;;;;;;48.23;22.37;;;5.40;99.90;;;;;;5092976;28;20047;-73
2021/11/16 03:44:56;;;;;;;46.47;23.77;;;5.30;99.90;;;;;;5092034;28;20534;-74
2021/11/16 03:47:24;;;;;;;46.87;21.40;;;5.30;99.90;;;;;;5092946;28;20051;-74
2021/11/16 03:49:51;;;;;;;46.83;22.07;;;5.30;99.90;;;;;;5091799;28;20500;-73
2021/11/16 03:52:22;;;;;;;44.67;21.23;;;5.30;99.90;;;;;;5092768;28;20067;-74
2021/11/16 03:54:49;;;;;;;49.73;23.90;;;5.20;99.90;;;;;;5092232;28;20052;-74
2021/11/16 03:57:16;;;;;;;46.00;21.20;;;5.20;99.90;;;;;;5092331;28;20052;-72
2021/11/16 03:59:43;;;;;;;43.20;22.73;;;5.20;99.90;;;;;;5093014;28;20052;-72
2021/11/16 04:02:11;;;;;;;40.53;21.73;;;5.20;99.90;;;;;;5092560;28;20054;-72
2021/11/16 04:04:41;;;;;;;47.73;22.43;;;5.20;99.90;;;;;;5091820;28;20041;-72
2021/11/16 04:07:08;;;;;;;48.27;22.30;;;5.20;99.90;;;;;;5092383;28;20044;-73
2021/11/16 04:09:36;;;;;;;47.43;20.57;;;5.30;99.90;;;;;;5092192;28;20048;-72
2021/11/16 04:12:03;;;;;;;43.20;22.53;;;5.20;99.90;;;;;;5092257;28;20044;-73
2021/11/16 04:14:31;;;;;;;49.00;22.87;;;5.20;99.90;;;;;;5092180;28;20112;-73
2021/11/16 04:16:58;;;;;;;49.33;23.63;;;5.20;99.90;;;;;;5092553;28;20048;-73
2021/11/16 04:19:24;;;;;;;39.70;20.17;;;5.20;99.90;;;;;;5092419;28;20071;-72
2021/11/16 04:21:53;;;;;;;45.40;21.57;;;5.30;99.90;;;;;;5092859;28;20091;-73
2021/11/16 04:24:20;;;;;;;49.87;23.33;;;5.20;99.90;;;;;;5092060;28;20067;-72
2021/11/16 04:26:47;;;;;;;45.27;21.67;;;5.20;99.90;;;;;;5092650;28;20044;-72
2021/11/16 04:29:13;;;;;;;41.47;19.80;;;5.20;99.90;;;;;;5092627;28;20117;-73
2021/11/16 04:31:40;;;;;;;51.77;22.73;;;5.20;99.90;;;;;;5092566;28;20083;-73
2021/11/16 04:34:08;;;;;;;46.13;21.20;;;5.20;99.90;;;;;;5091866;28;20075;-73
2021/11/16 04:36:36;;;;;;;46.57;21.10;;;5.20;99.90;;;;;;5092433;28;20040;-71
2021/11/16 04:39:07;;;;;;;45.90;23.83;;;5.20;99.90;;;;;;5092135;28;20142;-74
2021/11/16 04:41:34;;;;;;;50.53;24.60;;;5.30;99.90;;;;;;5092389;28;20492;-74
2021/11/16 04:44:04;;;;;;;50.23;25.67;;;5.20;99.90;;;;;;5091789;28;20117;-71
2021/11/16 04:46:31;;;;;;;47.77;21.90;;;5.20;99.90;;;;;;5092190;28;20044;-73
2021/11/16 04:49:03;;;;;;;47.30;24.40;;;5.20;99.90;;;;;;5091876;28;20044;-72
2021/11/16 05:02:32;;;;;;;50.83;22.67;;;5.30;99.90;;;;;;5092010;28;20055;-70
2021/11/16 05:02:44;;;;;;;46.23;22.97;;;5.30;99.90;;;;;;5091536;28;20051;-67
2021/11/16 05:05:15;;;;;;;48.37;23.67;;;5.30;99.90;;;;;;5091739;28;20412;-73
2021/11/16 05:07:45;;;;;;;48.35;23.80;;;5.30;99.90;;;;;;5092306;28;20060;-70
2021/11/16 05:10:14;;;;;;;44.73;21.53;;;5.30;99.90;;;;;;5091687;28;20089;-74
2021/11/16 05:12:41;;;;;;;45.53;21.10;;;5.30;99.90;;;;;;5092663;28;20056;-73
2021/11/16 05:15:11;;;;;;;44.77;23.07;;;5.30;99.90;;;;;;5091479;28;20040;-71
2021/11/16 05:17:38;;;;;;;55.70;24.20;;;5.30;99.90;;;;;;5092063;28;20135;-72
2021/11/16 05:20:06;;;;;;;54.57;22.57;;;5.20;99.90;;;;;;5092091;28;20082;-71
2021/11/16 05:22:34;;;;;;;55.07;23.70;;;5.20;99.90;;;;;;5093845;28;20125;-73
2021/11/16 05:25:01;;;;;;;54.77;23.37;;;5.20;99.90;;;;;;5091383;28;20048;-67
2021/11/16 05:27:29;;;;;;;53.50;21.60;;;5.30;99.90;;;;;;5091742;28;20044;-68
2021/11/16 05:29:56;;;;;;;57.97;24.93;;;5.30;99.90;;;;;;5091726;28;20044;-69
2021/11/16 05:32:23;;;;;;;54.03;25.03;;;5.30;99.90;;;;;;5091530;28;20143;-70
2021/11/16 05:34:50;;;;;;;57.57;22.93;;;5.30;99.90;;;;;;5091420;28;20089;-70
2021/11/16 05:37:17;;;;;;;55.83;21.57;;;5.20;99.90;;;;;;5091659;28;20087;-70
2021/11/16 05:39:44;;;;;;;60.67;24.87;;;5.20;99.90;;;;;;5091501;28;20443;-73
2021/11/16 05:42:11;;;;;;;49.50;23.83;;;5.20;99.90;;;;;;5091531;28;20048;-74
2021/11/16 05:44:40;;;;;;;55.30;24.10;;;5.20;99.90;;;;;;5091952;28;20478;-74
2021/11/16 05:47:07;;;;;;;39.60;21.30;;;5.20;99.90;;;;;;5091789;28;20091;-72
2021/11/16 05:49:34;;;;;;;61.27;26.37;;;5.20;99.90;;;;;;5091398;28;20048;-71
2021/11/16 05:52:02;;;;;;;56.20;23.43;;;5.20;99.90;;;;;;5091442;28;20091;-71
2021/11/16 05:54:32;;;;;;;50.23;24.83;;;5.30;99.90;;;;;;5091006;28;20119;-71
2021/11/16 05:57:00;;;;;;;56.20;23.77;;;5.20;99.90;;;;;;5091795;28;20044;-72
2021/11/16 05:59:32;;;;;;;56.87;24.07;;;5.20;99.90;;;;;;5091256;28;20465;-72
2021/11/16 06:02:02;;;;;;;56.03;23.33;;;5.30;99.90;;;;;;5091885;28;20074;-70
2021/11/16 06:04:29;;;;;;;59.90;28.80;;;5.30;99.90;;;;;;5090655;28;20079;-71
2021/11/16 06:06:56;;;;;;;53.37;23.40;;;5.30;99.90;;;;;;5091639;28;20068;-70
2021/11/16 06:09:26;;;;;;;59.07;25.70;;;5.30;99.90;;;;;;5091836;28;20055;-70
2021/11/16 06:11:53;;;;;;;60.57;25.77;;;5.30;99.90;;;;;;5091580;28;20044;-72
2021/11/16 06:14:20;;;;;;;50.83;24.53;;;5.30;99.90;;;;;;5094576;28;20040;-71
2021/11/16 06:16:47;;;;;;;45.07;23.43;;;5.30;99.90;;;;;;5094946;28;20078;-73
2021/11/16 06:19:17;;;;;;;41.10;20.93;;;5.20;99.90;;;;;;5095025;28;20117;-69
2021/11/16 06:21:44;;;;;;;40.87;22.93;;;5.20;99.90;;;;;;5095015;28;20075;-70
2021/11/16 06:24:11;;;;;;;56.73;25.47;;;5.10;99.90;;;;;;5094451;28;20098;-71
2021/11/16 06:26:38;;;;;;;55.30;24.77;;;5.20;99.90;;;;;;5094797;28;20134;-70
2021/11/16 06:29:07;;;;;;;59.80;23.50;;;5.20;99.90;;;;;;5094933;28;20048;-73
2021/11/16 06:31:34;;;;;;;65.63;24.77;;;5.20;99.90;;;;;;5094505;28;20135;-71
2021/11/16 06:34:03;;;;;;;61.67;23.57;;;5.20;99.90;;;;;;5094680;28;20068;-72
2021/11/16 06:36:35;;;;;;;50.33;22.93;;;5.20;99.90;;;;;;5094655;28;20142;-70
2021/11/16 06:39:03;;;;;;;;;;;5.30;99.90;;;;;;5095229;28;20048;-69
2021/11/16 06:41:30;;;;;;;45.63;21.77;;;5.30;99.90;;;;;;5094498;28;19973;-68
2021/11/16 06:43:58;;;;;;;43.30;19.20;;;5.20;99.90;;;;;;5093941;28;20071;-72
2021/11/16 06:46:24;;;;;;;55.77;22.10;;;5.20;99.90;;;;;;5094347;28;20048;-72
2021/11/16 06:48:51;;;;;;;44.13;22.43;;;5.20;99.90;;;;;;5094655;28;20070;-69
2021/11/16 06:51:18;;;;;;;47.17;21.63;;;5.20;99.90;;;;;;5094567;28;20078;-70
2021/11/16 06:53:47;;;;;;;44.73;23.93;;;5.20;99.90;;;;;;5093915;28;20177;-72
2021/11/16 06:56:14;;;;;;;55.93;21.50;;;5.20;99.90;;;;;;5094396;28;20548;-71
2021/11/16 06:58:40;;;;;;;56.63;23.77;;;5.20;99.90;;;;;;5094095;28;20134;-71
2021/11/16 07:01:08;;;;;;;48.40;21.23;;;5.20;99.90;;;;;;5094443;28;20093;-70
2021/11/16 07:03:35;;;;;;;45.57;19.97;;;5.30;99.90;;;;;;5093807;28;20044;-71
2021/11/16 07:06:05;;;;;;;44.27;20.03;;;5.30;99.90;;;;;;5094190;28;20249;-70
2021/11/16 07:08:35;;;;;;;40.60;18.87;;;5.30;99.90;;;;;;5094222;28;20040;-69
2021/11/16 07:11:11;;;;;;;43.60;20.87;;;5.30;99.90;;;;;;5093926;28;20143;-69
2021/11/16 07:13:53;;;;;;;51.20;20.63;;;5.30;99.90;;;;;;5093401;28;20048;-70
2021/11/16 07:16:20;;;;;;;45.50;20.70;;;5.30;99.90;;;;;;5094234;28;20048;-69
2021/11/16 07:18:52;;;;;;;46.13;20.07;;;5.30;99.90;;;;;;5093885;28;20079;-70
2021/11/16 07:21:20;;;;;;;55.17;21.20;;;5.30;99.90;;;;;;5098720;28;20044;-73
2021/11/16 07:24:00;;;;;;;41.20;19.97;;;5.30;99.90;;;;;;5092549;28;20079;-73
2021/11/16 07:26:29;;;;;;;51.30;19.73;;;5.40;99.90;;;;;;5094329;28;20058;-71
2021/11/16 07:28:56;;;;;;;56.60;20.60;;;5.40;99.90;;;;;;5093656;28;20097;-71
2021/11/16 07:31:25;;;;;;;50.50;20.77;;;5.40;99.90;;;;;;5093463;28;20496;-71
2021/11/16 07:33:53;;;;;;;55.57;23.80;;;5.40;99.90;;;;;;5093047;28;20044;-72
2021/11/16 07:36:20;;;;;;;58.37;20.50;;;5.30;99.90;;;;;;5093418;28;20040;-71
2021/11/16 07:38:51;;;;;;;47.23;22.00;;;5.50;99.90;;;;;;5093520;28;20139;-72
2021/11/16 07:41:23;;;;;;;44.90;20.92;;;5.40;99.90;;;;;;5093500;28;20090;-72
2021/11/16 07:43:52;;;;;;;53.00;22.50;;;5.50;99.90;;;;;;5092839;28;20040;-71
2021/11/16 07:46:19;;;;;;;53.57;21.00;;;5.50;99.90;;;;;;5093446;28;20135;-71
2021/11/16 07:48:46;;;;;;;60.07;24.00;;;5.50;99.90;;;;;;5093139;28;20056;-71
2021/11/16 07:51:13;;;;;;;47.73;24.30;;;5.50;99.90;;;;;;5093064;28;20047;-71
2021/11/16 07:53:42;;;;;;;53.77;19.27;;;5.50;99.90;;;;;;5092888;28;20084;-71
2021/11/16 07:56:11;;;;;;;53.60;20.93;;;5.60;99.90;;;;;;5093133;28;20048;-72
2021/11/16 07:58:40;;;;;;;53.03;22.90;;;5.60;99.90;;;;;;5093286;28;20075;-72
2021/11/16 08:01:14;;;;;;;59.00;23.97;;;5.60;99.90;;;;;;5092866;28;20075;-74
2021/11/16 08:03:47;;;;;;;50.37;22.33;;;5.70;99.90;;;;;;5092541;28;20047;-70
2021/11/16 08:06:19;;;;;;;61.03;23.67;;;5.80;99.90;;;;;;5093216;28;20082;-71
2021/11/16 08:11:38;;;;;;;56.43;21.97;;;5.90;99.90;;;;;;5081910;28;20083;-70
2021/11/16 08:14:07;;;;;;;61.00;22.17;;;6.10;99.90;;;;;;5092229;28;20575;-72
2021/11/16 08:16:38;;;;;;;50.07;19.10;;;6.20;99.90;;;;;;5092971;28;20040;-70
2021/11/16 08:19:08;;;;;;;54.43;24.57;;;6.40;99.90;;;;;;5092736;28;20052;-71
2021/11/16 08:21:37;;;;;;;58.83;21.87;;;6.50;99.90;;;;;;5092744;28;20044;-72
2021/11/16 08:24:06;;;;;;;56.23;23.30;;;6.60;99.90;;;;;;5091922;28;20101;-72
2021/11/16 08:26:35;;;;;;;49.33;22.13;;;6.70;99.90;;;;;;5092758;28;20050;-73
2021/11/16 08:29:03;;;;;;;51.67;20.70;;;6.80;99.90;;;;;;5092481;28;20084;-72
2021/11/16 08:31:36;;;;;;;47.77;22.13;;;6.90;99.90;;;;;;5092688;28;20048;-71
2021/11/16 08:34:06;;;;;;;48.47;18.97;;;6.90;99.90;;;;;;5091727;28;20419;-71
2021/11/16 08:36:46;;;;;;;40.90;21.97;;;7.10;99.90;;;;;;5092332;28;20040;-74
2021/11/16 08:39:15;;;;;;;52.40;21.08;;;7.20;99.90;;;;;;5092340;28;20048;-73
2021/11/16 08:41:42;;;;;;;43.20;19.55;;;7.40;99.90;;;;;;5092542;28;20050;-73
2021/11/16 08:44:14;;;;;;;51.38;20.23;;;7.50;99.90;;;;;;5091810;28;20252;-72
2021/11/16 08:46:42;;;;;;;37.80;18.00;;;7.70;99.90;;;;;;5092731;28;20105;-71
2021/11/16 08:49:22;;;;;;;36.40;18.23;;;7.80;99.90;;;;;;5091908;28;20068;-73
2021/11/16 08:51:49;;;;;;;38.45;19.65;;;7.70;99.90;;;;;;5092215;28;20051;-73
2021/11/16 08:54:24;;;;;;;45.28;18.48;;;7.70;99.90;;;;;;5091943;28;20040;-72
2021/11/16 08:56:51;;;;;;;43.78;21.25;;;7.70;99.90;;;;;;5091842;28;20067;-69
2021/11/16 08:59:20;;;;;;;37.97;19.13;;;7.70;99.90;;;;;;5091918;28;20093;-71
2021/11/16 09:01:54;;;;;;;48.47;19.17;;;7.60;99.90;;;;;;5093274;28;20171;-72
2021/11/16 09:04:27;;;;;;;37.78;19.13;;;7.50;99.90;;;;;;5093588;28;20044;-71
2021/11/16 09:06:54;;;;;;;59.42;21.63;;;7.40;99.90;;;;;;5091861;28;20504;-72
2021/11/16 09:09:23;;;;;;;44.30;17.60;;;7.40;99.90;;;;;;5091775;28;20044;-71
2021/11/16 09:11:59;;;;;;;36.50;18.73;;;7.40;99.90;;;;;;5091971;28;20062;-71
2021/11/16 09:14:26;;;;;;;39.65;18.48;;;7.30;99.90;;;;;;5091368;28;20377;-69
2021/11/16 09:16:53;;;;;;;42.47;20.65;;;7.20;99.90;;;;;;5091915;28;20055;-70
2021/11/16 09:19:26;;;;;;;50.13;21.42;;;7.20;99.90;;;;;;5091806;28;20044;-68
2021/11/16 09:21:52;;;;;;;48.17;20.70;;;7.20;99.90;;;;;;5091842;28;20575;-65
2021/11/16 09:24:19;;;;;;;46.73;20.57;;;7.20;99.90;;;;;;5091094;28;20092;-68
2021/11/16 09:26:57;;;;;;;47.97;21.37;;;7.20;99.90;;;;;;5091642;28;20102;-68
2021/11/16 09:29:25;;;;;;;53.70;21.13;;;7.20;99.90;;;;;;5091491;28;20045;-70
2021/11/16 09:31:55;;;;;;;44.93;20.80;;;7.20;99.90;;;;;;5091660;28;20074;-72
2021/11/16 09:34:26;;;;;;;50.53;20.87;;;7.10;99.90;;;;;;5091046;28;20052;-71
2021/11/16 09:36:57;;;;;;;33.95;17.95;;;7.10;99.90;;;;;;5091798;28;20109;-70
2021/11/16 09:39:26;;;;;;;40.37;19.97;;;7.10;99.90;;;;;;5091767;28;20040;-70
2021/11/16 09:41:55;;;;;;;37.92;17.15;;;7.00;99.90;;;;;;5091518;28;20066;-70
2021/11/16 09:44:25;;;;;;;44.27;18.03;;;7.00;99.90;;;;;;5091045;28;20113;-71
2021/11/16 09:46:56;;;;;;;38.57;19.47;;;6.90;99.90;;;;;;5091746;28;20561;-69
2021/11/16 09:49:32;;;;;;;45.30;18.87;;;6.90;99.90;;;;;;5095486;28;20044;-70
2021/11/16 09:52:05;;;;;;;46.03;20.17;;;6.80;99.90;;;;;;5095633;28;20101;-73
2021/11/16 09:54:45;;;;;;;50.77;19.53;;;6.80;99.90;;;;;;5094911;28;20040;-74
2021/11/16 09:57:13;;;;;;;51.50;22.53;;;6.90;99.90;;;;;;5095584;28;20048;-73
2021/11/16 09:59:42;;;;;;;42.57;18.50;;;6.90;99.90;;;;;;5095225;28;20054;-72
2021/11/16 10:02:14;;;;;;;46.07;19.43;;;7.00;99.90;;;;;;5095553;28;20271;-74
2021/11/16 10:04:46;;;;;;;49.37;21.07;;;7.00;99.90;;;;;;5095041;28;20101;-75
2021/11/16 10:07:14;;;;;;;58.50;22.58;;;7.00;99.90;;;;;;5095307;28;20048;-69
2021/11/16 10:09:42;;;;;;;43.57;20.87;;;7.10;99.90;;;;;;5095547;28;20108;-69
2021/11/16 10:12:10;;;;;;;55.40;20.80;;;7.10;99.90;;;;;;5095037;28;20086;-69
2021/11/16 10:14:37;;;;;;;45.27;20.20;;;7.20;99.90;;;;;;5094407;28;20454;-71
2021/11/16 10:17:04;;;;;;;54.93;21.20;;;7.20;99.90;;;;;;5095197;28;20117;-72
2021/11/16 10:19:30;;;;;;;43.53;19.83;;;7.20;99.90;;;;;;5094947;28;20048;-70
2021/11/16 10:21:57;;;;;;;48.37;21.40;;;7.30;99.90;;;;;;5095338;28;20165;-72
2021/11/16 10:24:30;;;;;;;47.67;19.70;;;7.30;99.90;;;;;;5094561;28;20102;-72
2021/11/16 10:27:01;;;;;;;42.85;20.35;;;7.30;99.90;;;;;;5095108;28;20052;-74
2021/11/16 10:29:29;;;;;;;48.70;22.17;;;7.50;99.90;;;;;;5095607;28;20040;-75
2021/11/16 10:31:55;;;;;;;51.88;22.98;;;7.60;99.90;;;;;;5095107;28;20431;-74
2021/11/16 10:34:38;;;;;;;47.22;22.05;;;7.80;99.90;;;;;;5094426;28;20081;-68
2021/11/16 10:37:06;;;;;;;40.08;18.13;;;7.90;99.90;;;;;;5094745;28;20127;-67
2021/11/16 10:39:34;;;;;;;49.22;18.55;;;7.90;99.90;;;;;;5094475;28;20105;-68
2021/11/16 10:42:04;;;;;;;50.50;19.73;;;8.00;99.90;;;;;;5094963;28;20080;-67
2021/11/16 10:44:32;;;;;;;49.60;20.75;;;8.00;99.90;;;;;;5093875;28;20101;-70
2021/11/16 10:47:02;;;;;;;51.47;20.88;;;8.00;99.90;;;;;;5094656;28;20520;-71
2021/11/16 10:49:29;;;;;;;49.97;21.55;;;8.00;99.90;;;;;;5094430;28;20040;-71
2021/11/16 10:51:57;;;;;;;44.10;18.75;;;8.10;99.90;;;;;;5094140;28;20055;-70
2021/11/16 10:54:23;;;;;;;55.28;22.20;;;8.20;99.90;;;;;;5094095;28;20454;-73
2021/11/16 10:56:58;;;;;;;44.47;20.63;;;8.30;99.90;;;;;;5094240;28;20052;-71
2021/11/16 10:59:30;;;;;;;47.70;21.08;;;8.30;99.90;;;;;;5093028;28;20058;-72
2021/11/16 11:01:58;;;;;;;38.35;17.30;;;8.30;99.90;;;;;;5094511;28;20041;-75
2021/11/16 11:04:27;;;;;;;43.28;21.13;;;8.20;99.90;;;;;;5093941;28;20044;-77
2021/11/16 11:06:55;;;;;;;47.08;21.27;;;8.30;99.90;;;;;;5094527;28;20044;-72
2021/11/16 11:09:22;;;;;;;45.40;20.33;;;8.20;99.90;;;;;;5093915;28;20480;-72
2021/11/16 11:11:54;;;;;;;50.22;20.58;;;8.30;99.90;;;;;;5093836;28;20052;-73
2021/11/16 11:14:25;;;;;;;43.08;21.38;;;8.40;99.90;;;;;;5093723;28;20056;-73
2021/11/16 11:16:54;;;;;;;39.72;20.55;;;8.30;99.90;;;;;;5094057;28;20051;-73
2021/11/16 11:19:26;;;;;;;39.67;20.67;;;8.40;99.90;;;;;;5094099;28;20055;-74
2021/11/16 11:21:58;;;;;;;38.72;19.17;;;8.40;99.90;;;;;;5093631;28;20093;-75
2021/11/16 11:24:27;;;;;;;;;;;8.30;99.90;;;;;;5094213;28;20056;-75
2021/11/16 11:26:57;;;;;;;46.63;20.85;;;8.30;99.90;;;;;;5093493;28;20011;-74
2021/11/16 11:29:37;;;;;;;43.95;20.83;;;8.40;99.90;;;;;;5093854;28;20048;-74
2021/11/16 11:32:13;;;;;;;38.85;18.20;;;8.30;99.90;;;;;;5094413;28;20136;-71
2021/11/16 11:34:44;;;;;;;41.50;16.77;;;8.40;99.90;;;;;;5094190;28;20044;-73
2021/11/16 11:37:17;;;;;;;41.97;18.70;;;8.20;99.90;;;;;;5095793;28;20056;-73
2021/11/16 11:39:45;;;;;;;36.45;17.52;;;8.20;99.90;;;;;;5095323;28;20454;-74
2021/11/16 11:42:14;;;;;;;41.83;18.13;;;8.30;99.90;;;;;;5095111;28;20109;-76
2021/11/16 11:45:09;;;;;;;43.00;18.77;;;8.30;99.90;;;;;;5094146;28;20048;-74
2021/11/16 11:47:41;;;;;;;45.65;19.55;;;8.20;99.90;;;;;;5094323;28;20040;-74
2021/11/16 11:50:24;;;;;;;38.20;17.92;;;8.10;99.90;;;;;;5093331;28;20109;-73
2021/11/16 11:52:51;;;;;;;35.90;18.10;;;8.10;99.90;;;;;;5093223;28;20051;-73
2021/11/16 11:55:19;;;;;;;31.67;16.30;;;8.10;99.90;;;;;;5093078;28;20048;-72
2021/11/16 11:57:46;;;;;;;36.20;17.58;;;8.20;99.90;;;;;;5093242;28;20055;-73
2021/11/16 12:00:15;;;;;;;38.45;17.60;;;8.20;99.90;;;;;;5092981;28;20040;-73
2021/11/16 12:02:44;;;;;;;37.30;17.65;;;8.20;99.90;;;;;;5093063;28;20500;-71
2021/11/16 12:05:10;;;;;;;33.58;16.70;;;8.20;99.90;;;;;;5092337;28;20040;-72
2021/11/16 12:07:37;;;;;;;36.15;18.02;;;8.20;99.90;;;;;;5092949;28;20093;-71
2021/11/16 12:10:04;;;;;;;39.13;18.92;;;8.30;99.90;;;;;;5092395;28;20044;-71
2021/11/16 12:12:31;;;;;;;39.20;17.65;;;8.30;99.90;;;;;;5092733;28;20052;-73
2021/11/16 12:15:03;;;;;;;35.03;16.98;;;8.30;99.90;;;;;;5092376;28;20439;-72
2021/11/16 12:17:32;;;;;;;;;;;8.40;99.90;;;;;;5093115;28;20407;-70
2021/11/16 12:19:58;;;;;;;32.00;15.48;;;8.40;99.90;;;;;;5093044;28;19920;-70
2021/11/16 12:22:27;;;;;;;42.92;18.33;;;8.50;99.90;;;;;;5092790;28;20091;-73
2021/11/16 12:24:59;;;;;;;32.20;16.70;;;8.50;99.90;;;;;;5092251;28;20044;-76
2021/11/16 12:27:32;;;;;;;30.02;17.10;;;8.50;99.90;;;;;;5093299;28;20063;-75
2021/11/16 12:30:00;;;;;;;39.20;16.83;;;8.40;99.90;;;;;;5092487;28;20048;-73
2021/11/16 12:32:29;;;;;;;37.08;17.15;;;8.40;99.90;;;;;;5092797;28;20088;-73
2021/11/16 12:35:03;;;;;;;37.17;16.60;;;8.60;99.90;;;;;;5092659;28;20120;-73
2021/11/16 12:37:43;;;;;;;33.92;17.02;;;8.70;99.90;;;;;;5092521;28;20091;-72
2021/11/16 12:40:21;;;;;;;46.63;18.52;;;8.70;99.90;;;;;;5092354;28;20044;-73
2021/11/16 12:43:11;;;;;;;42.00;17.13;;;8.50;99.90;;;;;;5092920;28;20047;-72
2021/11/16 12:45:40;;;;;;;35.22;17.20;;;8.70;99.90;;;;;;5093180;28;20106;-74
2021/11/16 12:48:08;;;;;;;30.98;16.33;;;8.50;99.90;;;;;;5092283;28;20055;-74
2021/11/16 12:50:38;;;;;;;38.50;16.83;;;8.50;99.90;;;;;;5092339;28;20496;-74
2021/11/16 12:53:05;;;;;;;33.03;16.67;;;8.50;99.90;;;;;;5091727;28;20043;-74
2021/11/16 12:55:33;;;;;;;40.78;16.27;;;8.50;99.90;;;;;;5092075;28;20501;-73
2021/11/16 12:58:25;;;;;;;35.20;17.25;;;8.50;99.90;;;;;;5097237;28;20047;-74